Airport Name : Campo Fontenelle

Other Name : Piracununga

ICAO : SBYS

IATA :

FAA :

Latitude : -21.984561

Longitude : -47.334764

Country : Brazil

Local Date and Time : 7/18/2018 7:17:00 PM

 

TAF (Terminal Aerodrome Forecast)

 

METAR (METeorological Aerodrome Report)

SBYS 182200Z 09002KT CAVOK 22/12 Q1020

SBYS 182100Z 09003KT CAVOK 25/11 Q1020

SBYS 182000Z 08006KT CAVOK 27/10 Q1020

SBYS 181900Z 03003KT CAVOK 28/09 Q1020